createdAt,value
2023-01-10T00:00:57.848Z,9.38
2023-01-10T00:03:25.206Z,9.51
2023-01-10T00:05:52.597Z,9.17
2023-01-10T00:08:20.047Z,9.27
2023-01-10T00:10:48.317Z,9.04
2023-01-10T00:13:26.466Z,8.61
2023-01-10T00:15:56.023Z,8.76
2023-01-10T00:18:23.506Z,8.87
2023-01-10T00:20:50.668Z,9.36
2023-01-10T00:23:18.589Z,8.58
2023-01-10T00:25:46.159Z,9.64
2023-01-10T00:28:23.604Z,8.81
2023-01-10T00:31:01.224Z,9.03
2023-01-10T00:33:31.788Z,9.98
2023-01-10T00:36:05.392Z,9.36
2023-01-10T00:38:33.819Z,9.22
2023-01-10T00:41:01.898Z,9.24
2023-01-10T00:43:47.826Z,9.54
2023-01-10T00:46:15.245Z,9.09
2023-01-10T00:48:42.605Z,8.71
2023-01-10T00:51:10.129Z,8.44
2023-01-10T00:53:37.476Z,9.21
2023-01-10T00:56:05.010Z,10.00
2023-01-10T00:58:33.049Z,9.30
2023-01-10T01:01:00.660Z,8.61
2023-01-10T01:03:27.634Z,9.23
2023-01-10T01:05:54.606Z,8.95
2023-01-10T01:08:21.987Z,8.25
2023-01-10T01:10:49.416Z,9.36
2023-01-10T01:13:20.047Z,9.11
2023-01-10T01:15:47.569Z,8.96
2023-01-10T01:18:21.536Z,9.24
2023-01-10T01:20:53.764Z,8.76
2023-01-10T01:23:20.928Z,8.82
2023-01-10T01:25:51.851Z,9.32
2023-01-10T01:28:19.770Z,9.22
2023-01-10T01:30:47.434Z,8.28
2023-01-10T01:33:14.662Z,9.28
2023-01-10T01:35:48.048Z,9.73
2023-01-10T01:38:16.344Z,8.66
2023-01-10T01:40:43.702Z,8.88
2023-01-10T01:43:25.528Z,9.29
2023-01-10T01:45:53.549Z,9.23
2023-01-10T01:48:32.671Z,9.10
2023-01-10T01:51:11.843Z,9.33
2023-01-10T01:53:58.163Z,9.96
2023-01-10T01:56:52.258Z,10.34
2023-01-10T01:59:26.391Z,9.05
2023-01-10T02:01:58.353Z,10.00
2023-01-10T02:04:33.443Z,9.96
2023-01-10T02:07:00.436Z,10.02
2023-01-10T02:09:36.574Z,10.32
2023-01-10T02:12:03.775Z,10.51
2023-01-10T02:14:32.103Z,10.16
2023-01-10T02:16:59.029Z,8.97
2023-01-10T02:20:01.677Z,8.87
2023-01-10T02:23:15.352Z,10.08
2023-01-10T02:26:23.437Z,9.54
2023-01-10T02:29:27.587Z,8.41
2023-01-10T02:32:09.360Z,9.37
2023-01-10T02:35:00.932Z,9.64
2023-01-10T02:38:01.002Z,9.75
2023-01-10T02:40:53.192Z,9.48
2023-01-10T02:43:27.224Z,9.59
2023-01-10T02:46:11.505Z,9.19
2023-01-10T02:48:38.576Z,8.94
2023-01-10T02:51:25.300Z,9.88
2023-01-10T02:54:10.580Z,10.31
2023-01-10T02:56:55.496Z,10.23
2023-01-10T02:59:54.485Z,10.27
2023-01-10T03:02:34.761Z,9.53
2023-01-10T03:05:49.736Z,10.00
2023-01-10T03:08:53.926Z,9.29
2023-01-10T03:11:39.992Z,9.51
2023-01-10T03:14:28.847Z,9.84
2023-01-10T03:17:04.746Z,9.74
2023-01-10T03:19:40.340Z,9.22
2023-01-10T03:22:08.941Z,9.59
2023-01-10T03:24:48.681Z,9.73
2023-01-10T03:27:43.987Z,9.22
2023-01-10T03:30:52.768Z,8.43
2023-01-10T03:33:28.459Z,9.57
2023-01-10T03:36:01.715Z,9.54
2023-01-10T03:38:54.286Z,9.21
2023-01-10T03:41:58.471Z,8.18
2023-01-10T03:44:51.512Z,9.66
2023-01-10T03:47:45.577Z,8.73
2023-01-10T03:50:18.765Z,8.28
2023-01-10T03:52:46.914Z,9.30
2023-01-10T03:55:19.521Z,9.14
2023-01-10T03:57:47.375Z,8.73
2023-01-10T04:00:15.283Z,8.92
2023-01-10T04:02:44.218Z,8.41
2023-01-10T04:05:11.660Z,9.66
2023-01-10T04:07:38.777Z,9.00
2023-01-10T04:10:06.802Z,9.52
2023-01-10T04:12:34.188Z,8.97
2023-01-10T04:15:01.549Z,9.17
2023-01-10T04:17:28.576Z,8.56
2023-01-10T04:19:55.594Z,9.03
2023-01-10T04:22:22.974Z,9.35
2023-01-10T04:24:51.988Z,9.57
2023-01-10T04:27:20.309Z,9.65
2023-01-10T04:29:47.514Z,9.72
2023-01-10T04:32:15.150Z,10.29
2023-01-10T04:34:42.562Z,10.36
2023-01-10T04:37:09.926Z,9.40
2023-01-10T04:39:37.330Z,9.37
2023-01-10T04:42:04.272Z,9.20
2023-01-10T04:44:31.261Z,9.27
2023-01-10T04:46:58.648Z,9.10
2023-01-10T04:49:26.020Z,8.96
2023-01-10T04:51:53.495Z,8.86
2023-01-10T04:54:22.068Z,9.53
2023-01-10T04:56:49.632Z,9.65
2023-01-10T04:59:17.039Z,9.16
2023-01-10T05:01:44.517Z,8.96
2023-01-10T05:04:11.877Z,9.67
2023-01-10T05:06:40.270Z,8.59
2023-01-10T05:09:09.234Z,9.49
2023-01-10T05:11:36.660Z,8.52
2023-01-10T05:14:03.788Z,8.95
2023-01-10T05:16:31.204Z,8.97
2023-01-10T05:18:58.600Z,9.35
2023-01-10T05:21:26.030Z,8.31
2023-01-10T05:23:52.977Z,9.53
2023-01-10T05:26:23.693Z,8.93
2023-01-10T05:28:51.166Z,8.82
2023-01-10T05:31:20.207Z,8.50
2023-01-10T05:33:49.835Z,9.45
2023-01-10T05:36:18.173Z,8.83
2023-01-10T05:38:45.729Z,9.62
2023-01-10T05:41:13.130Z,8.98
2023-01-10T05:43:40.146Z,8.81
2023-01-10T05:46:07.373Z,8.94
2023-01-10T05:48:34.859Z,9.55
2023-01-10T05:51:01.916Z,9.58
2023-01-10T05:53:29.314Z,9.41
2023-01-10T05:55:59.387Z,9.20
2023-01-10T05:58:27.624Z,9.24
2023-01-10T06:00:56.237Z,9.42
2023-01-10T06:03:25.025Z,8.91
2023-01-10T06:05:53.248Z,9.57
2023-01-10T06:08:20.744Z,8.97
2023-01-10T06:10:47.707Z,9.17
2023-01-10T06:13:15.277Z,8.74
2023-01-10T06:15:43.261Z,8.93
2023-01-10T06:18:12.416Z,8.55
2023-01-10T06:20:40.917Z,8.65
2023-01-10T06:23:08.548Z,9.13
2023-01-10T06:25:40.355Z,9.36
2023-01-10T06:28:12.607Z,8.91
2023-01-10T06:30:42.024Z,9.51
2023-01-10T06:33:10.873Z,9.04
2023-01-10T06:35:38.694Z,9.11
2023-01-10T06:38:06.095Z,8.28
2023-01-10T06:40:33.539Z,9.09
2023-01-10T06:43:00.879Z,9.63
2023-01-10T06:45:28.265Z,9.13
2023-01-10T06:47:55.657Z,8.66
2023-01-10T06:50:22.986Z,9.05
2023-01-10T06:53:04.085Z,9.44
2023-01-10T06:55:32.037Z,9.73
2023-01-10T06:58:03.639Z,8.93
2023-01-10T07:00:31.446Z,8.31
2023-01-10T07:03:00.428Z,8.58
2023-01-10T07:05:29.001Z,9.02
2023-01-10T07:07:58.305Z,8.42
2023-01-10T07:10:25.696Z,8.53
2023-01-10T07:12:55.800Z,8.59
2023-01-10T07:15:23.533Z,8.57
2023-01-10T07:17:51.008Z,8.02
2023-01-10T07:20:18.677Z,8.67
2023-01-10T07:22:54.908Z,9.20
2023-01-10T07:25:23.007Z,8.62
2023-01-10T07:27:50.435Z,8.24
2023-01-10T07:30:17.760Z,7.97
2023-01-10T07:32:45.090Z,8.57
2023-01-10T07:35:12.559Z,8.49
2023-01-10T07:37:39.930Z,8.24
2023-01-10T07:40:07.957Z,9.12
2023-01-10T07:42:34.898Z,8.63
2023-01-10T07:45:01.915Z,8.39
2023-01-10T07:47:29.301Z,8.27
2023-01-10T07:49:56.659Z,7.90
2023-01-10T07:52:24.025Z,8.79
2023-01-10T07:54:51.028Z,8.46
2023-01-10T07:57:18.516Z,8.11
2023-01-10T07:59:46.110Z,8.83
2023-01-10T08:02:13.587Z,8.00
2023-01-10T08:04:41.011Z,8.56
2023-01-10T08:07:08.391Z,8.76
2023-01-10T08:09:35.408Z,9.42
2023-01-10T08:12:02.979Z,9.31
2023-01-10T08:14:30.374Z,9.01
2023-01-10T08:16:57.751Z,8.84
2023-01-10T08:19:25.181Z,9.58
2023-01-10T08:21:52.538Z,9.10
2023-01-10T08:24:19.684Z,9.12
2023-01-10T08:26:47.053Z,8.87
2023-01-10T08:29:14.475Z,9.28
2023-01-10T08:31:42.164Z,8.79
2023-01-10T08:34:09.631Z,8.14
2023-01-10T08:36:36.586Z,9.03
2023-01-10T08:39:03.997Z,9.23
2023-01-10T08:41:31.363Z,8.99
2023-01-10T08:43:58.716Z,9.91
2023-01-10T08:46:26.224Z,8.92
2023-01-10T08:48:53.794Z,8.94
2023-01-10T08:51:21.152Z,9.14
2023-01-10T08:53:48.575Z,9.35
2023-01-10T08:56:16.082Z,9.52
2023-01-10T08:58:43.569Z,9.54
2023-01-10T09:01:12.913Z,8.96
2023-01-10T09:03:40.575Z,8.56
2023-01-10T09:06:08.691Z,8.06
2023-01-10T09:08:36.255Z,9.07
2023-01-10T09:11:04.560Z,9.52
2023-01-10T09:13:32.443Z,8.90
2023-01-10T09:16:00.540Z,8.51
2023-01-10T09:18:28.115Z,9.36
2023-01-10T09:20:55.532Z,8.85
2023-01-10T09:23:23.537Z,9.10
2023-01-10T09:25:53.986Z,9.05
2023-01-10T09:28:22.369Z,8.56
2023-01-10T09:30:50.106Z,9.07
2023-01-10T09:33:18.006Z,9.42
2023-01-10T09:35:45.524Z,9.01
2023-01-10T09:38:16.757Z,9.41
2023-01-10T09:41:34.408Z,10.61
2023-01-10T09:44:10.290Z,9.78
2023-01-10T09:47:21.201Z,9.63
2023-01-10T09:50:23.925Z,9.83
2023-01-10T09:52:57.575Z,10.05
2023-01-10T09:55:32.806Z,10.45
2023-01-10T09:58:05.663Z,9.45
2023-01-10T10:00:50.569Z,10.24
2023-01-10T10:03:57.789Z,10.88
2023-01-10T10:06:25.386Z,10.00
2023-01-10T10:08:53.333Z,9.88
2023-01-10T10:11:20.747Z,10.15
2023-01-10T10:14:11.864Z,9.95
2023-01-10T10:17:14.015Z,9.70
2023-01-10T10:20:14.630Z,10.26
2023-01-10T10:23:15.373Z,10.79
2023-01-10T10:26:19.959Z,9.93
2023-01-10T10:28:57.613Z,9.57
2023-01-10T10:31:41.222Z,10.40
2023-01-10T10:34:22.304Z,9.49
2023-01-10T10:36:56.545Z,9.19
2023-01-10T10:39:35.244Z,8.69
2023-01-10T10:42:04.721Z,9.93
2023-01-10T10:44:52.279Z,10.51
2023-01-10T10:47:22.839Z,9.01
2023-01-10T10:49:57.213Z,10.43
2023-01-10T10:52:34.796Z,9.62
2023-01-10T10:55:05.920Z,9.76
2023-01-10T10:57:38.561Z,9.73
2023-01-10T11:00:07.836Z,10.25
2023-01-10T11:02:47.411Z,10.15
2023-01-10T11:05:27.122Z,10.21
2023-01-10T11:08:02.075Z,9.16
2023-01-10T11:10:35.385Z,9.47
2023-01-10T11:13:38.103Z,10.37
2023-01-10T11:16:06.879Z,9.65
2023-01-10T11:18:34.899Z,10.19
2023-01-10T11:21:19.621Z,9.88
2023-01-10T11:23:53.858Z,9.63
2023-01-10T11:26:34.647Z,9.87
2023-01-10T11:29:26.233Z,9.49
2023-01-10T11:31:56.443Z,10.16
2023-01-10T11:34:31.293Z,9.84
2023-01-10T11:37:05.143Z,9.34
2023-01-10T11:39:33.373Z,9.33
2023-01-10T11:42:25.269Z,10.29
2023-01-10T11:44:52.230Z,10.62
2023-01-10T11:47:20.950Z,10.92
2023-01-10T11:49:50.168Z,10.14
2023-01-10T11:52:29.837Z,10.91
2023-01-10T11:55:00.324Z,9.94
2023-01-10T11:57:30.721Z,9.18
2023-01-10T12:00:09.017Z,10.27
2023-01-10T12:02:44.634Z,10.20
2023-01-10T12:05:21.764Z,9.42
2023-01-10T12:08:06.249Z,10.24
2023-01-10T12:10:34.819Z,10.12
2023-01-10T12:13:16.362Z,9.90
2023-01-10T12:15:43.899Z,9.93
2023-01-10T12:18:12.242Z,9.93
2023-01-10T12:20:52.056Z,9.92
2023-01-10T12:23:24.028Z,9.52
2023-01-10T12:26:00.232Z,8.89
2023-01-10T12:28:36.884Z,9.22
2023-01-10T12:31:12.389Z,9.90
2023-01-10T12:33:51.620Z,10.04
2023-01-10T12:36:44.848Z,10.17
2023-01-10T12:39:28.808Z,10.60
2023-01-10T12:42:30.221Z,9.96
2023-01-10T12:45:24.951Z,11.21
2023-01-10T12:48:17.511Z,12.07
2023-01-10T12:50:51.354Z,18.72
2023-01-10T12:53:18.659Z,13.83
2023-01-10T12:55:46.878Z,11.25
2023-01-10T12:58:43.094Z,12.66
2023-01-10T13:01:17.473Z,12.55
2023-01-10T13:03:53.657Z,11.99
2023-01-10T13:06:30.960Z,10.26
2023-01-10T13:09:00.431Z,10.73
2023-01-10T13:11:35.669Z,10.98
2023-01-10T13:14:05.270Z,11.02
2023-01-10T13:16:36.545Z,11.07
2023-01-10T13:19:28.015Z,11.33
2023-01-10T13:22:36.788Z,11.25
2023-01-10T13:25:05.128Z,10.01
2023-01-10T13:27:34.680Z,10.10
2023-01-10T13:30:04.770Z,10.33
2023-01-10T13:32:36.427Z,10.77
2023-01-10T13:35:18.667Z,11.41
2023-01-10T13:37:53.177Z,11.56
2023-01-10T13:40:30.865Z,11.05
2023-01-10T13:43:36.883Z,11.36
2023-01-10T13:46:24.007Z,11.32
2023-01-10T13:48:51.406Z,11.12
2023-01-10T13:51:21.163Z,11.22
2023-01-10T13:54:16.026Z,11.00
2023-01-10T13:56:46.171Z,11.07
2023-01-10T13:59:45.879Z,10.78
2023-01-10T14:02:29.112Z,10.88
2023-01-10T14:05:06.109Z,10.48
2023-01-10T14:07:54.966Z,10.43
2023-01-10T14:10:32.183Z,11.03
2023-01-10T14:13:09.338Z,11.01
2023-01-10T14:15:46.020Z,11.06
2023-01-10T14:18:27.531Z,11.51
2023-01-10T14:21:05.004Z,11.24
2023-01-10T14:23:42.069Z,11.80
2023-01-10T14:26:37.010Z,11.42
2023-01-10T14:29:13.859Z,12.63
2023-01-10T14:31:49.838Z,13.46
2023-01-10T14:34:29.164Z,13.73
2023-01-10T14:37:09.809Z,12.27
2023-01-10T14:39:37.463Z,10.86
2023-01-10T14:42:14.776Z,12.02
2023-01-10T14:45:19.560Z,11.49
2023-01-10T14:47:48.829Z,11.06
2023-01-10T14:50:32.581Z,11.32
2023-01-10T14:53:00.672Z,11.42
2023-01-10T14:55:28.228Z,10.81
2023-01-10T14:58:01.439Z,10.86
2023-01-10T15:00:34.434Z,10.87
2023-01-10T15:03:04.006Z,10.67
2023-01-10T15:05:37.304Z,9.58
2023-01-10T15:08:31.389Z,10.46
2023-01-10T15:11:05.745Z,10.93
2023-01-10T15:13:51.919Z,11.17
2023-01-10T15:16:24.406Z,11.41
2023-01-10T15:18:51.946Z,11.44
2023-01-10T15:21:22.189Z,11.25
2023-01-10T15:23:50.361Z,10.55
2023-01-10T15:26:27.989Z,10.88
2023-01-10T15:29:22.454Z,10.02
2023-01-10T15:31:50.421Z,10.88
2023-01-10T15:34:26.924Z,10.40
2023-01-10T15:37:00.926Z,10.77
2023-01-10T15:39:35.481Z,10.79
2023-01-10T15:42:08.628Z,10.56
2023-01-10T15:44:39.982Z,11.09
2023-01-10T15:47:36.866Z,10.60
2023-01-10T15:50:38.816Z,10.41
2023-01-10T15:53:11.422Z,10.43
2023-01-10T15:55:41.898Z,9.73
2023-01-10T15:58:31.523Z,10.58
2023-01-10T16:01:00.058Z,10.61
2023-01-10T16:03:34.868Z,10.93
2023-01-10T16:06:04.825Z,9.86
2023-01-10T16:08:35.195Z,9.55
2023-01-10T16:11:07.618Z,10.58
2023-01-10T16:13:36.937Z,10.84
2023-01-10T16:16:08.931Z,10.11
2023-01-10T16:18:36.342Z,10.82
2023-01-10T16:21:06.065Z,10.35
2023-01-10T16:23:35.089Z,10.91
2023-01-10T16:26:06.833Z,10.78
2023-01-10T16:28:37.990Z,10.35
2023-01-10T16:31:06.849Z,10.62
2023-01-10T16:33:36.880Z,10.72
2023-01-10T16:36:04.577Z,10.82
2023-01-10T16:38:31.555Z,10.80
2023-01-10T16:41:00.010Z,10.73
2023-01-10T16:43:29.476Z,10.40
2023-01-10T16:46:00.372Z,9.82
2023-01-10T16:48:33.493Z,10.76
2023-01-10T16:51:17.558Z,10.67
2023-01-10T16:53:46.034Z,10.71
2023-01-10T16:56:22.699Z,10.98
2023-01-10T16:58:51.095Z,10.74
2023-01-10T17:01:24.297Z,10.49
2023-01-10T17:03:53.147Z,10.51
2023-01-10T17:06:20.995Z,10.09
2023-01-10T17:08:49.642Z,10.52
2023-01-10T17:11:21.633Z,10.57
2023-01-10T17:13:49.035Z,10.49
2023-01-10T17:16:19.450Z,9.89
2023-01-10T17:18:47.609Z,10.52
2023-01-10T17:21:21.315Z,10.63
2023-01-10T17:23:49.340Z,10.04
2023-01-10T17:26:19.127Z,9.92
2023-01-10T17:28:48.435Z,10.36
2023-01-10T17:31:17.448Z,10.29
2023-01-10T17:33:44.829Z,9.57
2023-01-10T17:36:12.462Z,10.09
2023-01-10T17:38:39.474Z,10.14
2023-01-10T17:41:07.481Z,10.39
2023-01-10T17:43:35.071Z,10.49
2023-01-10T17:46:05.822Z,10.66
2023-01-10T17:48:34.670Z,10.42
2023-01-10T17:51:03.422Z,10.48
2023-01-10T17:53:31.298Z,10.51
2023-01-10T17:56:01.011Z,10.15
2023-01-10T17:58:28.696Z,10.00
2023-01-10T18:00:56.412Z,10.23
2023-01-10T18:03:24.377Z,10.28
2023-01-10T18:05:55.607Z,10.24
2023-01-10T18:08:23.630Z,10.38
2023-01-10T18:10:51.178Z,10.30
2023-01-10T18:13:20.750Z,10.29
2023-01-10T18:15:49.877Z,10.15
2023-01-10T18:18:19.187Z,10.14
2023-01-10T18:20:46.281Z,10.12
2023-01-10T18:23:25.252Z,9.74
2023-01-10T18:25:53.309Z,9.86
2023-01-10T18:28:35.168Z,9.84
2023-01-10T18:31:18.445Z,9.89
2023-01-10T18:33:46.965Z,9.85
2023-01-10T18:36:34.833Z,10.10
2023-01-10T18:39:03.645Z,10.12
2023-01-10T18:41:31.514Z,10.36
2023-01-10T18:43:58.512Z,10.03
2023-01-10T18:46:25.556Z,9.95
2023-01-10T18:48:53.115Z,9.88
2023-01-10T18:51:22.598Z,9.86
2023-01-10T18:53:52.734Z,9.62
2023-01-10T18:56:20.247Z,9.99
2023-01-10T18:58:47.817Z,10.10
2023-01-10T19:01:19.640Z,10.36
2023-01-10T19:03:46.996Z,10.16
2023-01-10T19:06:16.958Z,10.21
2023-01-10T19:08:45.985Z,9.93
2023-01-10T19:11:16.429Z,9.95
2023-01-10T19:13:45.355Z,9.86
2023-01-10T19:16:22.780Z,9.99
2023-01-10T19:18:59.051Z,10.01
2023-01-10T19:21:27.941Z,9.77
2023-01-10T19:23:56.547Z,9.81
2023-01-10T19:26:24.791Z,9.93
2023-01-10T19:28:52.433Z,9.99
2023-01-10T19:31:23.459Z,9.82
2023-01-10T19:33:51.099Z,10.12
2023-01-10T19:36:20.170Z,9.63
2023-01-10T19:38:47.895Z,10.00
2023-01-10T19:41:15.978Z,9.89
2023-01-10T19:43:43.034Z,9.60
2023-01-10T19:46:12.901Z,10.52
2023-01-10T19:48:40.551Z,10.12
2023-01-10T19:51:10.500Z,9.89
2023-01-10T19:53:47.404Z,10.04
2023-01-10T19:56:19.683Z,9.98
2023-01-10T19:58:48.296Z,9.82
2023-01-10T20:01:22.685Z,9.92
2023-01-10T20:03:49.752Z,9.76
2023-01-10T20:06:21.856Z,9.69
2023-01-10T20:08:49.835Z,10.12
2023-01-10T20:11:18.071Z,9.88
2023-01-10T20:13:45.770Z,9.83
2023-01-10T20:16:15.167Z,9.63
2023-01-10T20:18:42.852Z,10.26
2023-01-10T20:21:12.647Z,9.29
2023-01-10T20:23:40.940Z,9.75
2023-01-10T20:26:16.745Z,10.18
2023-01-10T20:28:45.389Z,10.10
2023-01-10T20:31:19.959Z,9.88
2023-01-10T20:33:47.266Z,10.21
2023-01-10T20:36:17.700Z,9.87
2023-01-10T20:38:45.179Z,9.91
2023-01-10T20:41:15.550Z,10.10
2023-01-10T20:43:43.640Z,9.88
2023-01-10T20:46:20.990Z,10.31
2023-01-10T20:48:48.745Z,9.86
2023-01-10T20:51:20.707Z,9.30
2023-01-10T20:54:08.516Z,9.66
2023-01-10T20:56:56.644Z,9.91
2023-01-10T20:59:44.161Z,9.83
2023-01-10T21:02:11.950Z,9.66
2023-01-10T21:04:39.898Z,9.33
2023-01-10T21:07:07.105Z,9.75
2023-01-10T21:09:34.671Z,8.97
2023-01-10T21:12:17.608Z,9.07
2023-01-10T21:14:49.410Z,9.57
2023-01-10T21:17:16.794Z,9.89
2023-01-10T21:19:44.222Z,9.56
2023-01-10T21:22:11.620Z,9.94
2023-01-10T21:24:39.035Z,9.75
2023-01-10T21:27:06.480Z,9.67
2023-01-10T21:29:34.791Z,9.87
2023-01-10T21:32:02.392Z,9.11
2023-01-10T21:34:29.766Z,9.36
2023-01-10T21:36:57.190Z,9.70
2023-01-10T21:39:24.690Z,9.94
2023-01-10T21:42:10.652Z,9.42
2023-01-10T21:44:38.311Z,9.59
2023-01-10T21:47:05.776Z,9.59
2023-01-10T21:49:33.167Z,9.47
